sensor_id;sensor_type;location;lat;lon;timestamp;temperature;humidity
10089;DHT22;51898;49.864;8.550;2023-07-08T00:01:45;20.70;54.00
10089;DHT22;51898;49.864;8.550;2023-07-08T00:04:46;20.70;53.70
10089;DHT22;51898;49.864;8.550;2023-07-08T00:07:48;20.80;53.30
10089;DHT22;51898;49.864;8.550;2023-07-08T00:10:51;20.80;53.10
10089;DHT22;51898;49.864;8.550;2023-07-08T00:13:53;20.90;53.20
10089;DHT22;51898;49.864;8.550;2023-07-08T00:16:54;20.80;53.70
10089;DHT22;51898;49.864;8.550;2023-07-08T00:19:56;20.70;54.30
10089;DHT22;51898;49.864;8.550;2023-07-08T00:22:58;20.60;54.20
10089;DHT22;51898;49.864;8.550;2023-07-08T00:26:09;20.60;54.00
10089;DHT22;51898;49.864;8.550;2023-07-08T00:29:12;20.50;54.10
10089;DHT22;51898;49.864;8.550;2023-07-08T00:32:15;20.50;54.10
10089;DHT22;51898;49.864;8.550;2023-07-08T00:35:17;20.40;54.00
10089;DHT22;51898;49.864;8.550;2023-07-08T00:38:27;20.40;54.00
10089;DHT22;51898;49.864;8.550;2023-07-08T00:41:36;20.30;54.30
10089;DHT22;51898;49.864;8.550;2023-07-08T00:44:40;20.30;54.20
10089;DHT22;51898;49.864;8.550;2023-07-08T00:47:42;20.30;54.30
10089;DHT22;51898;49.864;8.550;2023-07-08T00:50:44;20.30;54.10
10089;DHT22;51898;49.864;8.550;2023-07-08T00:53:46;20.20;54.00
10089;DHT22;51898;49.864;8.550;2023-07-08T00:56:53;20.20;53.90
10089;DHT22;51898;49.864;8.550;2023-07-08T01:00:03;20.10;54.10
10089;DHT22;51898;49.864;8.550;2023-07-08T01:03:06;20.10;54.00
10089;DHT22;51898;49.864;8.550;2023-07-08T01:06:07;20.10;53.80
10089;DHT22;51898;49.864;8.550;2023-07-08T01:09:11;20.10;53.90
10089;DHT22;51898;49.864;8.550;2023-07-08T01:12:17;20.10;54.20
10089;DHT22;51898;49.864;8.550;2023-07-08T01:15:23;20.10;54.40
10089;DHT22;51898;49.864;8.550;2023-07-08T01:18:28;20.00;54.50
10089;DHT22;51898;49.864;8.550;2023-07-08T01:21:37;20.00;54.50
10089;DHT22;51898;49.864;8.550;2023-07-08T01:24:41;19.90;54.50
10089;DHT22;51898;49.864;8.550;2023-07-08T01:27:46;19.80;54.60
10089;DHT22;51898;49.864;8.550;2023-07-08T01:30:49;19.80;54.90
10089;DHT22;51898;49.864;8.550;2023-07-08T01:33:52;19.80;55.00
10089;DHT22;51898;49.864;8.550;2023-07-08T01:36:55;19.70;55.20
10089;DHT22;51898;49.864;8.550;2023-07-08T01:40:13;19.80;55.30
10089;DHT22;51898;49.864;8.550;2023-07-08T01:43:14;19.70;55.20
10089;DHT22;51898;49.864;8.550;2023-07-08T01:46:23;19.70;55.00
10089;DHT22;51898;49.864;8.550;2023-07-08T01:49:25;19.70;54.30
10089;DHT22;51898;49.864;8.550;2023-07-08T01:52:27;19.70;54.20
10089;DHT22;51898;49.864;8.550;2023-07-08T01:55:29;19.80;53.70
10089;DHT22;51898;49.864;8.550;2023-07-08T01:58:32;19.80;53.40
10089;DHT22;51898;49.864;8.550;2023-07-08T02:01:34;19.80;53.20
10089;DHT22;51898;49.864;8.550;2023-07-08T02:04:35;19.90;53.80
10089;DHT22;51898;49.864;8.550;2023-07-08T02:07:37;19.80;53.70
10089;DHT22;51898;49.864;8.550;2023-07-08T02:10:41;19.80;53.80
10089;DHT22;51898;49.864;8.550;2023-07-08T02:13:43;19.70;53.60
10089;DHT22;51898;49.864;8.550;2023-07-08T02:16:45;19.70;53.50
10089;DHT22;51898;49.864;8.550;2023-07-08T02:19:46;19.70;53.40
10089;DHT22;51898;49.864;8.550;2023-07-08T02:22:48;19.60;53.80
10089;DHT22;51898;49.864;8.550;2023-07-08T02:25:51;19.60;53.80
10089;DHT22;51898;49.864;8.550;2023-07-08T02:28:53;19.40;54.10
10089;DHT22;51898;49.864;8.550;2023-07-08T02:31:55;19.40;54.10
10089;DHT22;51898;49.864;8.550;2023-07-08T02:34:56;19.30;54.40
10089;DHT22;51898;49.864;8.550;2023-07-08T02:37:58;19.20;54.70
10089;DHT22;51898;49.864;8.550;2023-07-08T02:41:00;19.20;54.40
10089;DHT22;51898;49.864;8.550;2023-07-08T02:44:02;19.20;54.40
10089;DHT22;51898;49.864;8.550;2023-07-08T02:47:04;19.20;54.90
10089;DHT22;51898;49.864;8.550;2023-07-08T02:50:07;19.10;55.30
10089;DHT22;51898;49.864;8.550;2023-07-08T02:53:10;19.00;56.10
10089;DHT22;51898;49.864;8.550;2023-07-08T02:56:11;18.90;56.70
10089;DHT22;51898;49.864;8.550;2023-07-08T02:59:13;18.80;56.90
10089;DHT22;51898;49.864;8.550;2023-07-08T03:02:15;18.70;57.80
10089;DHT22;51898;49.864;8.550;2023-07-08T03:05:17;18.60;58.00
10089;DHT22;51898;49.864;8.550;2023-07-08T03:08:18;18.50;58.40
10089;DHT22;51898;49.864;8.550;2023-07-08T03:11:20;18.40;58.70
10089;DHT22;51898;49.864;8.550;2023-07-08T03:14:22;18.30;59.10
10089;DHT22;51898;49.864;8.550;2023-07-08T03:17:23;18.20;59.40
10089;DHT22;51898;49.864;8.550;2023-07-08T03:20:25;18.10;59.60
10089;DHT22;51898;49.864;8.550;2023-07-08T03:23:27;18.10;59.40
10089;DHT22;51898;49.864;8.550;2023-07-08T03:26:28;18.10;59.40
10089;DHT22;51898;49.864;8.550;2023-07-08T03:29:33;18.00;59.30
10089;DHT22;51898;49.864;8.550;2023-07-08T03:32:35;18.00;59.00
10089;DHT22;51898;49.864;8.550;2023-07-08T03:35:37;18.00;58.80
10089;DHT22;51898;49.864;8.550;2023-07-08T03:38:40;18.10;58.50
10089;DHT22;51898;49.864;8.550;2023-07-08T03:41:44;18.10;58.30
10089;DHT22;51898;49.864;8.550;2023-07-08T03:44:46;18.10;58.20
10089;DHT22;51898;49.864;8.550;2023-07-08T03:47:47;18.10;58.20
10089;DHT22;51898;49.864;8.550;2023-07-08T03:50:49;18.10;58.00
10089;DHT22;51898;49.864;8.550;2023-07-08T03:53:51;18.20;57.90
10089;DHT22;51898;49.864;8.550;2023-07-08T03:56:53;18.40;57.70
10089;DHT22;51898;49.864;8.550;2023-07-08T03:59:55;18.50;57.40
10089;DHT22;51898;49.864;8.550;2023-07-08T04:02:57;18.70;57.10
10089;DHT22;51898;49.864;8.550;2023-07-08T04:05:59;18.70;56.90
10089;DHT22;51898;49.864;8.550;2023-07-08T04:09:00;18.70;56.90
10089;DHT22;51898;49.864;8.550;2023-07-08T04:12:02;18.80;56.70
10089;DHT22;51898;49.864;8.550;2023-07-08T04:15:05;18.90;56.60
10089;DHT22;51898;49.864;8.550;2023-07-08T04:18:07;18.80;56.60
10089;DHT22;51898;49.864;8.550;2023-07-08T04:21:08;19.10;56.00
10089;DHT22;51898;49.864;8.550;2023-07-08T04:24:15;19.40;54.90
10089;DHT22;51898;49.864;8.550;2023-07-08T04:27:17;19.90;53.70
10089;DHT22;51898;49.864;8.550;2023-07-08T04:30:25;20.30;52.40
10089;DHT22;51898;49.864;8.550;2023-07-08T04:33:27;20.50;51.40
10089;DHT22;51898;49.864;8.550;2023-07-08T04:36:30;20.70;51.00
10089;DHT22;51898;49.864;8.550;2023-07-08T04:39:32;20.90;50.20
10089;DHT22;51898;49.864;8.550;2023-07-08T04:42:34;21.10;49.80
10089;DHT22;51898;49.864;8.550;2023-07-08T04:45:44;21.30;48.80
10089;DHT22;51898;49.864;8.550;2023-07-08T04:48:46;21.50;48.60
10089;DHT22;51898;49.864;8.550;2023-07-08T04:51:50;21.50;48.40
10089;DHT22;51898;49.864;8.550;2023-07-08T04:54:52;21.50;48.30
10089;DHT22;51898;49.864;8.550;2023-07-08T04:57:54;21.60;48.10
10089;DHT22;51898;49.864;8.550;2023-07-08T05:00:56;21.80;48.10
10089;DHT22;51898;49.864;8.550;2023-07-08T05:03:59;21.80;48.10
10089;DHT22;51898;49.864;8.550;2023-07-08T05:07:01;22.00;48.20
10089;DHT22;51898;49.864;8.550;2023-07-08T05:10:03;22.20;47.50
10089;DHT22;51898;49.864;8.550;2023-07-08T05:13:05;22.20;47.60
10089;DHT22;51898;49.864;8.550;2023-07-08T05:16:06;22.00;47.60
10089;DHT22;51898;49.864;8.550;2023-07-08T05:19:08;21.80;47.90
10089;DHT22;51898;49.864;8.550;2023-07-08T05:22:12;21.70;48.30
10089;DHT22;51898;49.864;8.550;2023-07-08T05:25:15;21.70;48.10
10089;DHT22;51898;49.864;8.550;2023-07-08T05:28:17;21.70;47.80
10089;DHT22;51898;49.864;8.550;2023-07-08T05:31:18;21.80;47.60
10089;DHT22;51898;49.864;8.550;2023-07-08T05:34:20;22.00;48.10
10089;DHT22;51898;49.864;8.550;2023-07-08T05:37:22;22.20;47.30
10089;DHT22;51898;49.864;8.550;2023-07-08T05:40:26;22.50;48.20
10089;DHT22;51898;49.864;8.550;2023-07-08T05:43:28;22.70;48.30
10089;DHT22;51898;49.864;8.550;2023-07-08T05:46:33;22.70;48.60
10089;DHT22;51898;49.864;8.550;2023-07-08T05:49:35;22.70;48.10
10089;DHT22;51898;49.864;8.550;2023-07-08T05:52:37;22.60;48.30
10089;DHT22;51898;49.864;8.550;2023-07-08T05:55:39;22.60;48.60
10089;DHT22;51898;49.864;8.550;2023-07-08T05:58:41;22.70;47.50
10089;DHT22;51898;49.864;8.550;2023-07-08T06:01:43;22.80;46.30
10089;DHT22;51898;49.864;8.550;2023-07-08T06:04:45;22.80;45.80
10089;DHT22;51898;49.864;8.550;2023-07-08T06:07:49;22.80;46.00
10089;DHT22;51898;49.864;8.550;2023-07-08T06:10:51;22.70;46.50
10089;DHT22;51898;49.864;8.550;2023-07-08T06:13:53;22.90;46.70
10089;DHT22;51898;49.864;8.550;2023-07-08T06:16:58;23.00;46.60
10089;DHT22;51898;49.864;8.550;2023-07-08T06:19:59;23.10;46.80
10089;DHT22;51898;49.864;8.550;2023-07-08T06:23:03;23.20;46.50
10089;DHT22;51898;49.864;8.550;2023-07-08T06:26:05;23.30;46.40
10089;DHT22;51898;49.864;8.550;2023-07-08T06:29:06;23.40;47.30
10089;DHT22;51898;49.864;8.550;2023-07-08T06:32:09;23.40;47.90
10089;DHT22;51898;49.864;8.550;2023-07-08T06:35:10;23.40;50.30
10089;DHT22;51898;49.864;8.550;2023-07-08T06:38:12;23.20;53.60
10089;DHT22;51898;49.864;8.550;2023-07-08T06:41:14;23.00;53.10
10089;DHT22;51898;49.864;8.550;2023-07-08T06:44:16;22.80;53.10
10089;DHT22;51898;49.864;8.550;2023-07-08T06:47:18;22.80;53.40
10089;DHT22;51898;49.864;8.550;2023-07-08T06:50:21;23.00;54.40
10089;DHT22;51898;49.864;8.550;2023-07-08T06:53:23;22.90;54.80
10089;DHT22;51898;49.864;8.550;2023-07-08T06:56:25;22.90;55.90
10089;DHT22;51898;49.864;8.550;2023-07-08T06:59:26;23.00;56.60
10089;DHT22;51898;49.864;8.550;2023-07-08T07:02:30;22.90;58.10
10089;DHT22;51898;49.864;8.550;2023-07-08T07:05:32;22.90;57.20
10089;DHT22;51898;49.864;8.550;2023-07-08T07:08:33;22.90;57.00
10089;DHT22;51898;49.864;8.550;2023-07-08T07:11:35;22.80;57.40
10089;DHT22;51898;49.864;8.550;2023-07-08T07:14:37;22.70;57.70
10089;DHT22;51898;49.864;8.550;2023-07-08T07:17:41;22.90;55.80
10089;DHT22;51898;49.864;8.550;2023-07-08T07:20:48;22.80;54.00
10089;DHT22;51898;49.864;8.550;2023-07-08T07:23:51;22.80;53.60
10089;DHT22;51898;49.864;8.550;2023-07-08T07:26:53;22.90;52.10
10089;DHT22;51898;49.864;8.550;2023-07-08T07:29:55;23.00;50.10
10089;DHT22;51898;49.864;8.550;2023-07-08T07:32:59;23.10;48.90
10089;DHT22;51898;49.864;8.550;2023-07-08T07:36:01;23.30;49.10
10089;DHT22;51898;49.864;8.550;2023-07-08T07:39:03;23.80;48.40
10089;DHT22;51898;49.864;8.550;2023-07-08T07:42:05;24.20;47.80
10089;DHT22;51898;49.864;8.550;2023-07-08T07:45:08;24.80;46.90
10089;DHT22;51898;49.864;8.550;2023-07-08T07:48:09;25.50;44.60
10089;DHT22;51898;49.864;8.550;2023-07-08T07:51:11;25.90;43.50
10089;DHT22;51898;49.864;8.550;2023-07-08T07:54:14;25.90;43.20
10089;DHT22;51898;49.864;8.550;2023-07-08T07:57:16;26.10;42.40
10089;DHT22;51898;49.864;8.550;2023-07-08T08:00:19;26.40;42.00
10089;DHT22;51898;49.864;8.550;2023-07-08T08:03:21;26.40;40.90
10089;DHT22;51898;49.864;8.550;2023-07-08T08:06:23;26.50;40.40
10089;DHT22;51898;49.864;8.550;2023-07-08T08:09:25;26.90;40.70
10089;DHT22;51898;49.864;8.550;2023-07-08T08:12:26;27.30;38.80
10089;DHT22;51898;49.864;8.550;2023-07-08T08:15:35;27.70;37.30
10089;DHT22;51898;49.864;8.550;2023-07-08T08:18:37;28.00;36.90
10089;DHT22;51898;49.864;8.550;2023-07-08T08:21:39;28.50;35.00
10089;DHT22;51898;49.864;8.550;2023-07-08T08:24:40;28.90;35.40
10089;DHT22;51898;49.864;8.550;2023-07-08T08:27:42;29.40;34.70
10089;DHT22;51898;49.864;8.550;2023-07-08T08:30:49;29.60;34.00
10089;DHT22;51898;49.864;8.550;2023-07-08T08:33:51;29.60;33.90
10089;DHT22;51898;49.864;8.550;2023-07-08T08:36:53;29.80;34.10
10089;DHT22;51898;49.864;8.550;2023-07-08T08:39:57;29.80;34.40
10089;DHT22;51898;49.864;8.550;2023-07-08T08:52:22;30.00;35.10
10089;DHT22;51898;49.864;8.550;2023-07-08T08:55:25;30.10;35.00
10089;DHT22;51898;49.864;8.550;2023-07-08T08:58:47;30.20;34.70
10089;DHT22;51898;49.864;8.550;2023-07-08T09:01:50;30.30;34.80
10089;DHT22;51898;49.864;8.550;2023-07-08T09:04:52;30.20;34.80
10089;DHT22;51898;49.864;8.550;2023-07-08T09:08:01;30.20;34.90
10089;DHT22;51898;49.864;8.550;2023-07-08T09:11:19;30.30;34.90
10089;DHT22;51898;49.864;8.550;2023-07-08T09:14:26;30.30;34.70
10089;DHT22;51898;49.864;8.550;2023-07-08T09:17:29;30.00;35.30
10089;DHT22;51898;49.864;8.550;2023-07-08T09:20:37;30.30;35.10
10089;DHT22;51898;49.864;8.550;2023-07-08T09:23:40;30.30;35.10
10089;DHT22;51898;49.864;8.550;2023-07-08T09:26:43;30.10;35.60
10089;DHT22;51898;49.864;8.550;2023-07-08T09:29:46;30.30;35.60
10089;DHT22;51898;49.864;8.550;2023-07-08T09:32:49;30.50;35.30
10089;DHT22;51898;49.864;8.550;2023-07-08T09:35:51;30.60;35.40
10089;DHT22;51898;49.864;8.550;2023-07-08T09:38:53;30.80;35.00
10089;DHT22;51898;49.864;8.550;2023-07-08T09:41:55;31.00;34.70
10089;DHT22;51898;49.864;8.550;2023-07-08T09:44:59;31.20;34.10
10089;DHT22;51898;49.864;8.550;2023-07-08T09:48:03;31.30;34.50
10089;DHT22;51898;49.864;8.550;2023-07-08T09:51:05;31.30;35.00
10089;DHT22;51898;49.864;8.550;2023-07-08T09:54:08;31.20;34.70
10089;DHT22;51898;49.864;8.550;2023-07-08T09:57:17;31.40;35.00
10089;DHT22;51898;49.864;8.550;2023-07-08T10:00:37;31.50;34.70
10089;DHT22;51898;49.864;8.550;2023-07-08T10:03:40;31.70;34.30
10089;DHT22;51898;49.864;8.550;2023-07-08T10:06:44;31.70;34.20
10089;DHT22;51898;49.864;8.550;2023-07-08T10:09:54;31.90;34.50
10089;DHT22;51898;49.864;8.550;2023-07-08T10:13:08;31.70;35.20
10089;DHT22;51898;49.864;8.550;2023-07-08T10:16:29;31.90;34.80
10089;DHT22;51898;49.864;8.550;2023-07-08T10:19:32;32.00;35.00
10089;DHT22;51898;49.864;8.550;2023-07-08T10:23:00;31.90;34.20
10089;DHT22;51898;49.864;8.550;2023-07-08T10:26:31;32.10;34.70
10089;DHT22;51898;49.864;8.550;2023-07-08T10:30:03;32.30;35.10
10089;DHT22;51898;49.864;8.550;2023-07-08T10:37:00;32.60;35.00
10089;DHT22;51898;49.864;8.550;2023-07-08T10:40:19;32.60;34.80
10089;DHT22;51898;49.864;8.550;2023-07-08T10:50:42;32.80;34.60
10089;DHT22;51898;49.864;8.550;2023-07-08T10:57:28;33.00;33.80
10089;DHT22;51898;49.864;8.550;2023-07-08T11:04:20;33.20;34.00
10089;DHT22;51898;49.864;8.550;2023-07-08T11:10:42;33.30;33.60
10089;DHT22;51898;49.864;8.550;2023-07-08T11:14:06;33.20;34.10
10089;DHT22;51898;49.864;8.550;2023-07-08T11:17:18;33.10;33.90
10089;DHT22;51898;49.864;8.550;2023-07-08T11:20:26;33.00;33.70
10089;DHT22;51898;49.864;8.550;2023-07-08T11:23:36;33.00;33.70
10089;DHT22;51898;49.864;8.550;2023-07-08T11:27:11;32.90;34.30
10089;DHT22;51898;49.864;8.550;2023-07-08T11:30:16;33.00;34.00
10089;DHT22;51898;49.864;8.550;2023-07-08T11:33:23;33.20;33.80
10089;DHT22;51898;49.864;8.550;2023-07-08T11:36:26;33.30;33.90
10089;DHT22;51898;49.864;8.550;2023-07-08T11:43:00;33.60;32.90
10089;DHT22;51898;49.864;8.550;2023-07-08T11:46:06;33.70;33.50
10089;DHT22;51898;49.864;8.550;2023-07-08T11:49:14;33.90;32.90
10089;DHT22;51898;49.864;8.550;2023-07-08T11:52:18;34.00;31.90
10089;DHT22;51898;49.864;8.550;2023-07-08T11:55:27;34.10;32.80
10089;DHT22;51898;49.864;8.550;2023-07-08T11:58:57;34.00;32.60
10089;DHT22;51898;49.864;8.550;2023-07-08T12:02:12;34.00;31.50
10089;DHT22;51898;49.864;8.550;2023-07-08T12:05:14;33.70;32.10
10089;DHT22;51898;49.864;8.550;2023-07-08T12:08:18;33.90;31.80
10089;DHT22;51898;49.864;8.550;2023-07-08T12:11:26;34.20;32.50
10089;DHT22;51898;49.864;8.550;2023-07-08T12:14:29;34.30;31.90
10089;DHT22;51898;49.864;8.550;2023-07-08T12:17:32;34.40;32.00
10089;DHT22;51898;49.864;8.550;2023-07-08T12:20:37;34.40;32.40
10089;DHT22;51898;49.864;8.550;2023-07-08T12:23:44;34.20;31.90
10089;DHT22;51898;49.864;8.550;2023-07-08T12:26:47;34.10;31.90
10089;DHT22;51898;49.864;8.550;2023-07-08T12:29:48;34.30;31.10
10089;DHT22;51898;49.864;8.550;2023-07-08T12:32:51;34.50;31.00
10089;DHT22;51898;49.864;8.550;2023-07-08T12:35:53;34.80;30.30
10089;DHT22;51898;49.864;8.550;2023-07-08T12:38:58;35.20;30.30
10089;DHT22;51898;49.864;8.550;2023-07-08T12:42:00;35.10;30.10
10089;DHT22;51898;49.864;8.550;2023-07-08T12:45:02;34.90;30.40
10089;DHT22;51898;49.864;8.550;2023-07-08T12:48:04;35.00;30.30
10089;DHT22;51898;49.864;8.550;2023-07-08T12:51:11;35.10;30.30
10089;DHT22;51898;49.864;8.550;2023-07-08T12:54:14;35.10;30.20
10089;DHT22;51898;49.864;8.550;2023-07-08T12:57:16;35.40;29.30
10089;DHT22;51898;49.864;8.550;2023-07-08T13:00:26;35.50;29.30
10089;DHT22;51898;49.864;8.550;2023-07-08T13:03:37;35.60;28.90
10089;DHT22;51898;49.864;8.550;2023-07-08T13:06:44;35.60;28.70
10089;DHT22;51898;49.864;8.550;2023-07-08T13:09:48;35.60;28.60
10089;DHT22;51898;49.864;8.550;2023-07-08T13:12:53;35.80;28.30
10089;DHT22;51898;49.864;8.550;2023-07-08T13:15:57;35.90;28.20
10089;DHT22;51898;49.864;8.550;2023-07-08T13:18:59;36.00;28.20
10089;DHT22;51898;49.864;8.550;2023-07-08T13:22:02;36.30;29.00
10089;DHT22;51898;49.864;8.550;2023-07-08T13:25:14;36.40;29.20
10089;DHT22;51898;49.864;8.550;2023-07-08T13:28:19;36.30;28.30
10089;DHT22;51898;49.864;8.550;2023-07-08T13:31:23;36.30;28.50
10089;DHT22;51898;49.864;8.550;2023-07-08T13:34:26;36.40;28.60
10089;DHT22;51898;49.864;8.550;2023-07-08T13:37:30;36.50;28.50
10089;DHT22;51898;49.864;8.550;2023-07-08T13:40:32;36.60;27.70
10089;DHT22;51898;49.864;8.550;2023-07-08T13:43:37;36.60;28.30
10089;DHT22;51898;49.864;8.550;2023-07-08T13:46:45;36.50;28.10
10089;DHT22;51898;49.864;8.550;2023-07-08T13:49:49;36.40;28.50
10089;DHT22;51898;49.864;8.550;2023-07-08T13:52:56;36.40;29.40
10089;DHT22;51898;49.864;8.550;2023-07-08T13:56:03;36.40;29.20
10089;DHT22;51898;49.864;8.550;2023-07-08T13:59:12;36.60;29.00
10089;DHT22;51898;49.864;8.550;2023-07-08T14:02:22;36.80;29.00
10089;DHT22;51898;49.864;8.550;2023-07-08T14:05:24;37.00;28.80
10089;DHT22;51898;49.864;8.550;2023-07-08T14:08:26;37.20;28.90
10089;DHT22;51898;49.864;8.550;2023-07-08T14:11:28;37.30;28.00
10089;DHT22;51898;49.864;8.550;2023-07-08T14:14:30;37.50;27.10
10089;DHT22;51898;49.864;8.550;2023-07-08T14:17:32;37.40;26.60
10089;DHT22;51898;49.864;8.550;2023-07-08T14:20:34;37.50;26.70
10089;DHT22;51898;49.864;8.550;2023-07-08T14:23:35;37.40;27.50
10089;DHT22;51898;49.864;8.550;2023-07-08T14:26:38;37.40;28.90
10089;DHT22;51898;49.864;8.550;2023-07-08T14:29:45;37.30;29.00
10089;DHT22;51898;49.864;8.550;2023-07-08T14:32:47;37.50;28.30
10089;DHT22;51898;49.864;8.550;2023-07-08T14:35:49;37.60;27.10
10089;DHT22;51898;49.864;8.550;2023-07-08T14:38:50;37.70;27.70
10089;DHT22;51898;49.864;8.550;2023-07-08T14:41:52;37.70;28.10
10089;DHT22;51898;49.864;8.550;2023-07-08T14:44:54;37.80;28.50
10089;DHT22;51898;49.864;8.550;2023-07-08T14:47:56;37.80;29.20
10089;DHT22;51898;49.864;8.550;2023-07-08T14:50:58;38.00;29.00
10089;DHT22;51898;49.864;8.550;2023-07-08T14:54:00;38.00;28.80
10089;DHT22;51898;49.864;8.550;2023-07-08T14:57:03;37.80;28.80
10089;DHT22;51898;49.864;8.550;2023-07-08T15:00:06;37.80;28.80
10089;DHT22;51898;49.864;8.550;2023-07-08T15:03:08;37.60;29.50
10089;DHT22;51898;49.864;8.550;2023-07-08T15:06:12;37.60;29.30
10089;DHT22;51898;49.864;8.550;2023-07-08T15:09:14;37.80;29.40
10089;DHT22;51898;49.864;8.550;2023-07-08T15:12:15;38.10;28.80
10089;DHT22;51898;49.864;8.550;2023-07-08T15:15:37;38.20;28.50
10089;DHT22;51898;49.864;8.550;2023-07-08T15:18:41;38.30;28.30
10089;DHT22;51898;49.864;8.550;2023-07-08T15:21:44;38.40;28.00
10089;DHT22;51898;49.864;8.550;2023-07-08T15:24:46;38.50;27.80
10089;DHT22;51898;49.864;8.550;2023-07-08T15:27:53;38.70;27.80
10089;DHT22;51898;49.864;8.550;2023-07-08T15:30:55;38.50;28.10
10089;DHT22;51898;49.864;8.550;2023-07-08T15:33:57;38.40;27.90
10089;DHT22;51898;49.864;8.550;2023-07-08T15:36:59;38.50;28.00
10089;DHT22;51898;49.864;8.550;2023-07-08T15:40:00;38.50;27.80
10089;DHT22;51898;49.864;8.550;2023-07-08T15:43:03;38.50;27.70
10089;DHT22;51898;49.864;8.550;2023-07-08T15:46:07;38.30;28.10
10089;DHT22;51898;49.864;8.550;2023-07-08T15:49:18;37.40;28.80
10089;DHT22;51898;49.864;8.550;2023-07-08T15:52:20;36.90;29.00
10089;DHT22;51898;49.864;8.550;2023-07-08T15:55:28;36.40;30.10
10089;DHT22;51898;49.864;8.550;2023-07-08T15:58:33;36.00;30.50
10089;DHT22;51898;49.864;8.550;2023-07-08T16:01:35;35.60;31.90
10089;DHT22;51898;49.864;8.550;2023-07-08T16:04:38;35.30;32.00
10089;DHT22;51898;49.864;8.550;2023-07-08T16:07:40;35.10;32.40
10089;DHT22;51898;49.864;8.550;2023-07-08T16:10:42;35.00;32.30
10089;DHT22;51898;49.864;8.550;2023-07-08T16:13:45;34.80;32.20
10089;DHT22;51898;49.864;8.550;2023-07-08T16:16:48;34.70;32.30
10089;DHT22;51898;49.864;8.550;2023-07-08T16:19:50;34.70;32.10
10089;DHT22;51898;49.864;8.550;2023-07-08T16:22:52;34.60;32.20
10089;DHT22;51898;49.864;8.550;2023-07-08T16:25:54;34.50;32.20
10089;DHT22;51898;49.864;8.550;2023-07-08T16:28:56;34.30;32.30
10089;DHT22;51898;49.864;8.550;2023-07-08T16:31:58;34.30;32.70
10089;DHT22;51898;49.864;8.550;2023-07-08T16:35:00;34.20;33.00
10089;DHT22;51898;49.864;8.550;2023-07-08T16:38:01;34.10;33.30
10089;DHT22;51898;49.864;8.550;2023-07-08T16:41:03;34.00;33.50
10089;DHT22;51898;49.864;8.550;2023-07-08T16:44:13;33.90;33.70
10089;DHT22;51898;49.864;8.550;2023-07-08T16:47:16;33.70;33.50
10089;DHT22;51898;49.864;8.550;2023-07-08T16:50:24;33.60;33.70
10089;DHT22;51898;49.864;8.550;2023-07-08T16:53:27;33.50;33.80
10089;DHT22;51898;49.864;8.550;2023-07-08T16:56:29;33.40;34.30
10089;DHT22;51898;49.864;8.550;2023-07-08T16:59:30;33.10;37.00
10089;DHT22;51898;49.864;8.550;2023-07-08T17:02:33;32.80;38.60
10089;DHT22;51898;49.864;8.550;2023-07-08T17:05:36;32.60;39.20
10089;DHT22;51898;49.864;8.550;2023-07-08T17:08:37;32.30;39.00
10089;DHT22;51898;49.864;8.550;2023-07-08T17:11:39;32.10;38.30
10089;DHT22;51898;49.864;8.550;2023-07-08T17:14:41;32.00;38.20
10089;DHT22;51898;49.864;8.550;2023-07-08T17:17:51;31.90;38.40
10089;DHT22;51898;49.864;8.550;2023-07-08T17:21:01;31.80;39.80
10089;DHT22;51898;49.864;8.550;2023-07-08T17:24:05;31.70;40.80
10089;DHT22;51898;49.864;8.550;2023-07-08T17:27:08;31.60;42.10
10089;DHT22;51898;49.864;8.550;2023-07-08T17:30:12;31.50;42.40
10089;DHT22;51898;49.864;8.550;2023-07-08T17:33:17;31.30;42.30
10089;DHT22;51898;49.864;8.550;2023-07-08T17:36:23;31.10;42.70
10089;DHT22;51898;49.864;8.550;2023-07-08T17:39:27;30.90;43.30
10089;DHT22;51898;49.864;8.550;2023-07-08T17:42:28;30.70;42.50
10089;DHT22;51898;49.864;8.550;2023-07-08T17:45:42;30.60;42.10
10089;DHT22;51898;49.864;8.550;2023-07-08T17:48:45;30.40;40.10
10089;DHT22;51898;49.864;8.550;2023-07-08T17:51:48;30.30;39.40
10089;DHT22;51898;49.864;8.550;2023-07-08T17:54:54;30.20;38.80
10089;DHT22;51898;49.864;8.550;2023-07-08T17:57:56;30.00;39.10
10089;DHT22;51898;49.864;8.550;2023-07-08T18:00:57;29.80;38.50
10089;DHT22;51898;49.864;8.550;2023-07-08T18:03:59;29.80;37.90
10089;DHT22;51898;49.864;8.550;2023-07-08T18:07:01;29.80;36.00
10089;DHT22;51898;49.864;8.550;2023-07-08T18:10:03;29.60;37.00
10089;DHT22;51898;49.864;8.550;2023-07-08T18:13:11;29.40;36.80
10089;DHT22;51898;49.864;8.550;2023-07-08T18:16:18;29.30;38.00
10089;DHT22;51898;49.864;8.550;2023-07-08T18:19:20;29.20;38.60
10089;DHT22;51898;49.864;8.550;2023-07-08T18:22:22;29.10;38.90
10089;DHT22;51898;49.864;8.550;2023-07-08T18:25:25;29.00;39.10
10089;DHT22;51898;49.864;8.550;2023-07-08T18:28:29;29.00;39.20
10089;DHT22;51898;49.864;8.550;2023-07-08T18:31:34;29.00;39.10
10089;DHT22;51898;49.864;8.550;2023-07-08T18:34:36;28.80;40.10
10089;DHT22;51898;49.864;8.550;2023-07-08T18:37:37;28.80;40.20
10089;DHT22;51898;49.864;8.550;2023-07-08T18:40:41;29.00;40.10
10089;DHT22;51898;49.864;8.550;2023-07-08T18:43:43;29.00;40.60
10089;DHT22;51898;49.864;8.550;2023-07-08T18:46:45;28.90;40.60
10089;DHT22;51898;49.864;8.550;2023-07-08T18:49:47;28.90;40.60
10089;DHT22;51898;49.864;8.550;2023-07-08T18:52:48;28.90;39.80
10089;DHT22;51898;49.864;8.550;2023-07-08T18:55:50;28.90;39.80
10089;DHT22;51898;49.864;8.550;2023-07-08T18:58:52;28.90;39.60
10089;DHT22;51898;49.864;8.550;2023-07-08T19:01:54;28.80;39.80
10089;DHT22;51898;49.864;8.550;2023-07-08T19:04:55;28.80;39.80
10089;DHT22;51898;49.864;8.550;2023-07-08T19:07:57;28.80;39.50
10089;DHT22;51898;49.864;8.550;2023-07-08T19:10:59;28.70;39.00
10089;DHT22;51898;49.864;8.550;2023-07-08T19:14:00;28.60;38.90
10089;DHT22;51898;49.864;8.550;2023-07-08T19:17:03;28.60;39.10
10089;DHT22;51898;49.864;8.550;2023-07-08T19:20:05;28.30;39.80
10089;DHT22;51898;49.864;8.550;2023-07-08T19:23:16;28.20;40.40
10089;DHT22;51898;49.864;8.550;2023-07-08T19:26:21;27.90;41.70
10089;DHT22;51898;49.864;8.550;2023-07-08T19:29:23;27.80;42.40
10089;DHT22;51898;49.864;8.550;2023-07-08T19:32:25;27.70;42.60
10089;DHT22;51898;49.864;8.550;2023-07-08T19:35:27;27.70;42.90
10089;DHT22;51898;49.864;8.550;2023-07-08T19:38:30;27.60;44.50
10089;DHT22;51898;49.864;8.550;2023-07-08T19:41:35;27.50;45.50
10089;DHT22;51898;49.864;8.550;2023-07-08T19:44:38;27.30;45.70
10089;DHT22;51898;49.864;8.550;2023-07-08T19:47:40;27.30;45.70
10089;DHT22;51898;49.864;8.550;2023-07-08T19:50:41;27.20;46.50
10089;DHT22;51898;49.864;8.550;2023-07-08T19:53:43;27.10;46.90
10089;DHT22;51898;49.864;8.550;2023-07-08T19:56:45;27.10;47.40